createdAt,value
2018-03-20T00:00:58.490Z,-1.20
2018-03-20T00:03:26.894Z,-1.20
2018-03-20T00:05:56.463Z,-1.10
2018-03-20T00:08:24.841Z,-1.20
2018-03-20T00:10:53.243Z,-1.20
2018-03-20T00:13:21.649Z,-1.10
2018-03-20T00:15:50.807Z,-1.10
2018-03-20T00:18:19.208Z,-1.10
2018-03-20T00:20:48.424Z,-1.20
2018-03-20T00:23:17.573Z,-1.20
2018-03-20T00:25:45.948Z,-1.30
2018-03-20T00:28:14.365Z,-1.20
2018-03-20T00:30:43.525Z,-1.10
2018-03-20T00:33:11.933Z,-1.20
2018-03-20T00:35:40.380Z,-1.10
2018-03-20T00:38:08.769Z,-1.10
2018-03-20T00:40:37.153Z,-1.10
2018-03-20T00:43:05.573Z,-1.10
2018-03-20T00:45:34.722Z,-1.10
2018-03-20T00:48:03.098Z,-1.10
2018-03-20T00:50:31.498Z,-1.00
2018-03-20T00:52:59.873Z,-1.00
2018-03-20T00:55:28.250Z,-0.90
2018-03-20T00:57:56.666Z,-1.00
2018-03-20T01:00:25.823Z,-1.10
2018-03-20T01:02:54.202Z,-1.20
2018-03-20T01:05:22.634Z,-1.20
2018-03-20T01:07:51.007Z,-1.20
2018-03-20T01:10:19.383Z,-1.20
2018-03-20T01:12:47.798Z,-1.20
2018-03-20T01:15:16.509Z,-1.20
2018-03-20T01:17:44.888Z,-1.20
2018-03-20T01:20:13.297Z,-1.20
2018-03-20T01:22:42.453Z,-1.30
2018-03-20T01:25:10.843Z,-1.30
2018-03-20T01:27:39.606Z,-1.20
2018-03-20T01:30:07.985Z,-1.20
2018-03-20T01:32:36.371Z,-1.20
2018-03-20T01:35:04.802Z,-1.20
2018-03-20T01:37:33.178Z,-1.30
2018-03-20T01:40:02.325Z,-1.20
2018-03-20T01:42:30.731Z,-1.20
2018-03-20T01:44:59.877Z,-1.20
2018-03-20T01:47:28.275Z,-1.30
2018-03-20T01:49:57.056Z,-1.30
2018-03-20T01:52:26.388Z,-1.30
2018-03-20T01:54:54.810Z,-1.40
2018-03-20T01:57:23.225Z,-1.40
2018-03-20T01:59:51.611Z,-1.40
2018-03-20T02:02:19.993Z,-1.40
2018-03-20T02:04:48.601Z,-1.30
2018-03-20T02:07:17.750Z,-1.30
2018-03-20T02:09:46.129Z,-1.30
2018-03-20T02:12:14.553Z,-1.30
2018-03-20T02:14:43.708Z,-1.40
2018-03-20T02:17:12.091Z,-1.40
2018-03-20T02:19:40.502Z,-1.30
2018-03-20T02:22:08.882Z,-1.40
2018-03-20T02:24:37.257Z,-1.40
2018-03-20T02:27:05.671Z,-1.40
2018-03-20T02:29:34.047Z,-1.40
2018-03-20T02:32:02.428Z,-1.40
2018-03-20T02:34:30.922Z,-1.50
2018-03-20T02:36:59.299Z,-1.60
2018-03-20T02:39:27.679Z,-1.50
2018-03-20T02:41:56.101Z,-1.60
2018-03-20T02:44:24.482Z,-1.60
2018-03-20T02:46:52.863Z,-1.60
2018-03-20T02:49:21.275Z,-1.60
2018-03-20T02:51:49.667Z,-1.70
2018-03-20T02:54:18.051Z,-1.80
2018-03-20T02:56:46.478Z,-1.80
2018-03-20T02:59:14.862Z,-1.80
2018-03-20T03:01:43.238Z,-1.80
2018-03-20T03:04:11.644Z,-1.90
2018-03-20T03:06:40.023Z,-1.90
2018-03-20T03:09:08.398Z,-1.90
2018-03-20T03:11:37.595Z,-2.00
2018-03-20T03:14:06.738Z,-2.00
2018-03-20T03:16:35.118Z,-2.00
2018-03-20T03:19:03.578Z,-2.00
2018-03-20T03:21:31.967Z,-2.10
2018-03-20T03:24:00.350Z,-2.10
2018-03-20T03:26:28.778Z,-2.10
2018-03-20T03:28:57.441Z,-2.20
2018-03-20T03:31:27.185Z,-2.10
2018-03-20T03:33:55.602Z,-2.20
2018-03-20T03:36:23.986Z,-2.20
2018-03-20T03:38:52.370Z,-2.20
2018-03-20T03:41:20.798Z,-2.20
2018-03-20T03:43:49.942Z,-2.30
2018-03-20T03:46:18.372Z,-2.30
2018-03-20T03:48:47.549Z,-2.20
2018-03-20T03:51:15.931Z,-2.30
2018-03-20T03:53:44.317Z,-2.30
2018-03-20T03:56:13.490Z,-2.30
2018-03-20T03:58:41.878Z,-2.30
2018-03-20T04:01:10.299Z,-2.30
2018-03-20T04:03:38.719Z,-2.30
2018-03-20T04:06:07.118Z,-2.30
2018-03-20T04:08:35.509Z,-2.30
2018-03-20T04:11:05.225Z,-2.20
2018-03-20T04:13:34.373Z,-2.20
2018-03-20T04:16:02.750Z,-2.20
2018-03-20T04:18:31.167Z,-2.20
2018-03-20T04:21:00.316Z,-2.20
2018-03-20T04:23:28.692Z,-2.20
2018-03-20T04:25:57.125Z,-2.20
2018-03-20T04:28:25.523Z,-2.10
2018-03-20T04:30:53.929Z,-2.10
2018-03-20T04:33:22.309Z,-2.10
2018-03-20T04:35:50.686Z,-2.10
2018-03-20T04:38:19.101Z,-2.10
2018-03-20T04:40:47.478Z,-2.10
2018-03-20T04:43:16.026Z,-2.00
2018-03-20T04:45:44.392Z,-2.10
2018-03-20T04:48:12.769Z,-2.00
2018-03-20T04:50:41.161Z,-2.10
2018-03-20T04:53:09.579Z,-2.00
2018-03-20T04:55:37.981Z,-2.00
2018-03-20T04:58:07.134Z,-2.00
2018-03-20T05:00:35.529Z,-2.00
2018-03-20T05:03:03.950Z,-2.10
2018-03-20T05:05:32.327Z,-2.10
2018-03-20T05:08:00.710Z,-2.00
2018-03-20T05:10:29.254Z,-2.00
2018-03-20T05:12:57.658Z,-2.00
2018-03-20T05:15:26.934Z,-1.90
2018-03-20T05:17:56.074Z,-1.90
2018-03-20T05:23:38.112Z,-1.90
2018-03-20T05:26:06.527Z,-1.90
2018-03-20T05:28:34.910Z,-1.90
2018-03-20T05:31:03.337Z,-1.90
2018-03-20T05:33:32.619Z,-1.90
2018-03-20T05:36:01.018Z,-1.90
2018-03-20T05:38:29.454Z,-1.90
2018-03-20T05:40:57.852Z,-1.80
2018-03-20T05:43:26.254Z,-1.80
2018-03-20T05:45:54.685Z,-1.80
2018-03-20T05:48:27.050Z,-1.80
2018-03-20T05:51:01.149Z,-1.80
2018-03-20T05:53:29.674Z,-1.80
2018-03-20T05:55:58.819Z,-1.70
2018-03-20T05:58:27.253Z,-1.70
2018-03-20T06:00:55.646Z,-1.70
2018-03-20T06:03:24.035Z,-1.70
2018-03-20T06:05:52.458Z,-1.70
2018-03-20T06:08:20.825Z,-1.60
2018-03-20T06:10:49.207Z,-1.60
2018-03-20T06:13:17.627Z,-1.60
2018-03-20T06:15:46.016Z,-1.50
2018-03-20T06:18:14.398Z,-1.50
2018-03-20T06:20:42.809Z,-1.50
2018-03-20T06:23:11.190Z,-1.40
2018-03-20T06:25:39.574Z,-1.40
2018-03-20T06:28:08.010Z,-1.40
2018-03-20T06:30:36.404Z,-1.30
2018-03-20T06:33:04.787Z,-1.30
2018-03-20T06:35:33.198Z,-1.30
2018-03-20T06:38:01.610Z,-1.40
2018-03-20T06:40:30.739Z,-1.40
2018-03-20T06:42:59.171Z,-1.30
2018-03-20T06:45:28.313Z,-1.40
2018-03-20T06:47:56.691Z,-1.40
2018-03-20T06:50:25.128Z,-1.30
2018-03-20T06:52:54.273Z,-1.20
2018-03-20T06:55:22.651Z,-1.20
2018-03-20T06:57:51.115Z,-1.10
2018-03-20T07:00:19.499Z,-1.10
2018-03-20T07:02:47.887Z,-1.20
2018-03-20T07:05:16.290Z,-1.10
2018-03-20T07:07:44.674Z,-1.00
2018-03-20T07:10:13.129Z,-0.90
2018-03-20T07:12:41.545Z,-0.80
2018-03-20T07:15:09.928Z,-0.70
2018-03-20T07:17:38.317Z,-0.60
2018-03-20T07:20:07.502Z,-0.40
2018-03-20T07:22:35.881Z,-0.40
2018-03-20T07:25:05.029Z,-0.10
2018-03-20T07:27:33.492Z,-0.10
2018-03-20T07:30:01.872Z,0.00
2018-03-20T07:32:30.256Z,0.30
2018-03-20T07:34:58.670Z,0.60
2018-03-20T07:37:27.045Z,0.90
2018-03-20T07:39:55.494Z,1.10
2018-03-20T07:42:23.907Z,1.40
2018-03-20T07:44:52.282Z,1.80
2018-03-20T07:47:20.657Z,2.20
2018-03-20T07:49:49.054Z,2.60
2018-03-20T07:52:19.004Z,2.90
2018-03-20T07:54:48.157Z,3.00
2018-03-20T07:57:16.576Z,3.00
2018-03-20T07:59:45.731Z,3.30
2018-03-20T08:02:14.102Z,3.30
2018-03-20T08:04:42.498Z,3.20
2018-03-20T08:07:10.885Z,3.10
2018-03-20T08:09:40.035Z,3.10
2018-03-20T08:12:08.438Z,3.10
2018-03-20T08:14:36.810Z,3.10
2018-03-20T08:17:05.193Z,3.20
2018-03-20T08:19:33.610Z,3.20
2018-03-20T08:22:02.755Z,3.40
2018-03-20T08:24:31.127Z,3.40
2018-03-20T08:26:59.528Z,3.40
2018-03-20T08:29:27.903Z,3.40
2018-03-20T08:31:56.282Z,3.50
2018-03-20T08:34:24.687Z,3.60
2018-03-20T08:36:53.058Z,4.00
2018-03-20T08:39:21.436Z,4.60
2018-03-20T08:41:49.860Z,4.80
2018-03-20T08:44:18.275Z,5.20
2018-03-20T08:46:46.642Z,5.70
2018-03-20T08:49:15.049Z,6.00
2018-03-20T08:51:44.195Z,6.60
2018-03-20T08:54:12.629Z,6.50
2018-03-20T08:56:41.912Z,7.30
2018-03-20T08:59:10.303Z,7.30
2018-03-20T09:01:38.682Z,7.80
2018-03-20T09:04:07.882Z,8.80
2018-03-20T09:06:36.258Z,8.80
2018-03-20T09:09:04.656Z,9.80
2018-03-20T09:11:33.904Z,12.10
2018-03-20T09:14:02.289Z,12.10
2018-03-20T09:16:30.662Z,13.20
2018-03-20T09:18:59.079Z,13.00
2018-03-20T09:21:28.229Z,13.10
2018-03-20T09:23:56.602Z,13.10
2018-03-20T09:26:25.020Z,13.10
2018-03-20T09:28:53.468Z,12.90
2018-03-20T09:31:21.844Z,12.70
2018-03-20T09:33:50.246Z,12.60
2018-03-20T09:36:18.638Z,12.50
2018-03-20T09:38:47.030Z,12.30
2018-03-20T09:41:15.453Z,12.30
2018-03-20T09:43:43.851Z,12.40
2018-03-20T09:46:12.237Z,12.40
2018-03-20T09:48:40.663Z,12.00
2018-03-20T09:51:09.818Z,11.00
2018-03-20T09:53:38.202Z,10.90
2018-03-20T09:56:06.618Z,10.50
2018-03-20T09:58:35.765Z,11.30
2018-03-20T10:01:04.145Z,11.30
2018-03-20T10:03:32.580Z,11.60
2018-03-20T10:06:01.768Z,12.40
2018-03-20T10:08:30.120Z,12.40
2018-03-20T10:10:58.609Z,13.00
2018-03-20T10:13:27.026Z,13.50
2018-03-20T10:15:55.413Z,14.70
2018-03-20T10:18:24.047Z,16.20
2018-03-20T10:20:52.431Z,17.30
2018-03-20T10:23:20.813Z,17.90
2018-03-20T10:25:49.987Z,18.90
2018-03-20T10:28:18.367Z,18.90
2018-03-20T10:30:46.742Z,19.40
2018-03-20T10:33:15.153Z,20.40
2018-03-20T10:35:44.299Z,21.20
2018-03-20T10:38:12.674Z,21.10
2018-03-20T10:40:41.101Z,21.30
2018-03-20T10:43:09.535Z,21.60
2018-03-20T10:45:37.915Z,22.20
2018-03-20T10:48:06.326Z,22.90
2018-03-20T10:50:34.702Z,23.30
2018-03-20T10:53:03.082Z,22.90
2018-03-20T10:55:31.497Z,22.80
2018-03-20T10:57:59.882Z,23.00
2018-03-20T11:00:33.786Z,23.50
2018-03-20T11:03:07.674Z,23.70
2018-03-20T11:05:36.853Z,22.80
2018-03-20T11:08:05.226Z,22.80
2018-03-20T11:10:33.605Z,22.90
2018-03-20T11:13:02.033Z,23.40
2018-03-20T11:15:30.416Z,23.50
2018-03-20T11:17:58.785Z,23.70
2018-03-20T11:20:27.538Z,24.10
2018-03-20T11:22:55.915Z,24.20
2018-03-20T11:25:24.293Z,23.80
2018-03-20T11:27:52.698Z,23.70
2018-03-20T11:30:21.967Z,23.70
2018-03-20T11:32:50.346Z,23.70
2018-03-20T11:35:18.929Z,24.40
2018-03-20T11:37:47.308Z,24.40
2018-03-20T11:40:15.682Z,24.20
2018-03-20T11:42:44.117Z,24.60
2018-03-20T11:45:12.494Z,24.90
2018-03-20T11:47:40.874Z,25.30
2018-03-20T11:50:09.286Z,25.40
2018-03-20T11:52:37.670Z,25.60
2018-03-20T11:55:06.038Z,26.10
2018-03-20T11:57:34.461Z,26.70
2018-03-20T12:00:03.614Z,25.80
2018-03-20T12:02:31.991Z,25.70
2018-03-20T12:05:00.422Z,25.50
2018-03-20T12:07:29.573Z,24.20
2018-03-20T12:09:57.954Z,24.20
2018-03-20T12:12:26.363Z,24.80
2018-03-20T12:14:55.538Z,25.00
2018-03-20T12:17:23.914Z,25.00
2018-03-20T12:19:52.383Z,25.20
2018-03-20T12:22:20.797Z,24.70
2018-03-20T12:24:51.423Z,25.50
2018-03-20T12:27:20.626Z,25.50
2018-03-20T12:29:49.775Z,26.00
2018-03-20T12:32:18.165Z,26.00
2018-03-20T12:34:46.600Z,26.70
2018-03-20T12:37:14.987Z,27.20
2018-03-20T12:39:43.363Z,27.20
2018-03-20T12:42:11.778Z,27.90
2018-03-20T12:44:40.154Z,28.20
2018-03-20T12:47:08.524Z,28.30
2018-03-20T12:49:36.926Z,27.40
2018-03-20T12:52:05.308Z,26.90
2018-03-20T12:54:33.694Z,26.30
2018-03-20T12:57:02.886Z,26.40
2018-03-20T12:59:31.268Z,26.30
2018-03-20T13:01:59.650Z,26.60
2018-03-20T13:04:28.117Z,26.20
2018-03-20T13:06:56.493Z,26.30
2018-03-20T13:09:24.884Z,26.40
2018-03-20T13:11:53.386Z,25.50
2018-03-20T13:14:22.557Z,24.80
2018-03-20T13:16:50.941Z,24.70
2018-03-20T13:19:20.788Z,23.10
2018-03-20T13:21:49.946Z,22.10
2018-03-20T13:24:18.326Z,22.00
2018-03-20T13:26:46.929Z,21.30
2018-03-20T13:29:16.081Z,20.90
2018-03-20T13:31:44.462Z,20.90
2018-03-20T13:34:13.057Z,20.60
2018-03-20T13:36:41.290Z,20.30
2018-03-20T13:39:09.673Z,21.20
2018-03-20T13:41:38.083Z,21.80
2018-03-20T13:44:06.470Z,23.40
2018-03-20T13:46:34.842Z,24.30
2018-03-20T13:49:03.283Z,25.10
2018-03-20T13:51:31.663Z,24.70
2018-03-20T13:54:00.038Z,24.00
2018-03-20T13:56:28.450Z,22.60
2018-03-20T13:58:56.846Z,21.50
2018-03-20T14:01:25.230Z,20.00
2018-03-20T14:03:53.671Z,17.30
2018-03-20T14:06:22.063Z,15.00
2018-03-20T14:08:50.450Z,14.00
2018-03-20T14:11:18.865Z,13.40
2018-03-20T14:13:48.004Z,13.10
2018-03-20T14:16:16.386Z,13.00
2018-03-20T14:18:44.795Z,13.00
2018-03-20T14:21:13.173Z,13.10
2018-03-20T14:23:41.571Z,13.70
2018-03-20T14:26:10.773Z,15.60
2018-03-20T14:28:39.150Z,15.60
2018-03-20T14:31:07.530Z,16.30
2018-03-20T14:33:37.329Z,16.40
2018-03-20T14:36:05.714Z,16.30
2018-03-20T14:38:34.098Z,15.90
2018-03-20T14:41:03.279Z,16.60
2018-03-20T14:43:31.677Z,16.60
2018-03-20T14:46:00.830Z,16.70
2018-03-20T14:48:29.250Z,16.60
2018-03-20T14:50:58.402Z,14.60
2018-03-20T14:53:26.793Z,14.50
2018-03-20T14:55:55.226Z,13.40
2018-03-20T14:58:23.720Z,12.10
2018-03-20T15:00:52.101Z,11.30
2018-03-20T15:03:20.501Z,10.50
2018-03-20T15:05:48.877Z,9.70
2018-03-20T15:08:17.241Z,8.40
2018-03-20T15:10:45.638Z,7.90
2018-03-20T15:13:14.039Z,7.70
2018-03-20T15:15:42.408Z,7.50
2018-03-20T15:18:10.818Z,7.30
2018-03-20T15:20:39.945Z,6.90
2018-03-20T15:23:08.333Z,6.90
2018-03-20T15:25:36.735Z,6.90
2018-03-20T15:28:05.107Z,7.00
2018-03-20T15:30:33.476Z,7.00
2018-03-20T15:33:01.875Z,6.70
2018-03-20T15:35:30.250Z,6.70
2018-03-20T15:37:58.639Z,6.70
2018-03-20T15:40:27.048Z,6.70
2018-03-20T15:42:56.187Z,6.50
2018-03-20T15:45:24.569Z,6.50
2018-03-20T15:47:52.969Z,6.20
2018-03-20T15:50:21.350Z,6.00
2018-03-20T15:52:49.728Z,5.80
2018-03-20T15:55:18.136Z,5.60
2018-03-20T15:57:47.505Z,5.30
2018-03-20T16:00:16.377Z,5.20
2018-03-20T16:02:44.798Z,5.20
2018-03-20T16:05:13.322Z,5.20
2018-03-20T16:07:41.693Z,5.20
2018-03-20T16:10:10.094Z,5.30
2018-03-20T16:12:38.474Z,5.30
2018-03-20T16:15:06.841Z,5.40
2018-03-20T16:17:35.246Z,5.40
2018-03-20T16:20:03.622Z,5.50
2018-03-20T16:22:31.997Z,5.50
2018-03-20T16:25:00.412Z,5.40
2018-03-20T16:27:29.579Z,5.30
2018-03-20T16:29:57.984Z,5.30
2018-03-20T16:32:26.449Z,5.30
2018-03-20T16:34:54.818Z,5.30
2018-03-20T16:37:23.201Z,5.20
2018-03-20T16:39:51.769Z,5.20
2018-03-20T16:42:20.226Z,5.10
2018-03-20T16:44:48.593Z,5.00
2018-03-20T16:47:17.072Z,4.90
2018-03-20T16:49:45.431Z,4.90
2018-03-20T16:52:15.059Z,4.60
2018-03-20T16:54:43.505Z,4.60
2018-03-20T16:57:11.922Z,4.50
2018-03-20T16:59:40.792Z,4.30
2018-03-20T17:02:09.238Z,4.20
2018-03-20T17:04:37.769Z,4.00
2018-03-20T17:07:06.590Z,4.00
2018-03-20T17:09:35.045Z,3.90
2018-03-20T17:12:03.414Z,3.80
2018-03-20T17:14:32.028Z,3.70
2018-03-20T17:17:00.437Z,3.60
2018-03-20T17:19:29.629Z,3.50
2018-03-20T17:21:58.017Z,3.40
2018-03-20T17:24:26.871Z,3.40
2018-03-20T17:26:55.263Z,3.40
2018-03-20T17:29:24.365Z,3.30
2018-03-20T17:31:52.867Z,3.20
2018-03-20T17:34:21.292Z,3.20
2018-03-20T17:36:50.150Z,3.20
2018-03-20T17:39:19.244Z,3.10
2018-03-20T17:41:48.080Z,3.00
2018-03-20T17:44:16.669Z,3.00
2018-03-20T17:46:45.691Z,3.00
2018-03-20T17:49:15.270Z,3.00
2018-03-20T17:51:43.654Z,2.90
2018-03-20T17:54:12.053Z,2.90
2018-03-20T17:56:40.431Z,2.90
2018-03-20T17:59:09.617Z,2.90
2018-03-20T18:01:38.088Z,2.90
2018-03-20T18:04:12.535Z,2.80
2018-03-20T18:06:46.630Z,2.80
2018-03-20T18:09:16.582Z,2.80
2018-03-20T18:11:46.815Z,2.60
2018-03-20T18:14:16.124Z,2.50
2018-03-20T18:16:44.510Z,2.50
2018-03-20T18:19:13.447Z,2.50
2018-03-20T18:21:42.007Z,2.50
2018-03-20T18:24:11.312Z,2.40
2018-03-20T18:26:39.741Z,2.40
2018-03-20T18:29:08.729Z,2.40
2018-03-20T18:31:37.876Z,2.20
2018-03-20T18:34:06.311Z,2.20
2018-03-20T18:36:34.886Z,2.10
2018-03-20T18:39:03.339Z,2.10
2018-03-20T18:41:31.739Z,2.00
2018-03-20T18:44:01.469Z,1.90
2018-03-20T18:46:29.839Z,1.90
2018-03-20T18:48:59.025Z,2.00
2018-03-20T18:51:28.170Z,2.00
2018-03-20T18:53:56.542Z,2.00
2018-03-20T18:56:24.964Z,2.10
2018-03-20T18:58:54.905Z,2.10
2018-03-20T19:01:24.003Z,2.00
2018-03-20T19:03:53.616Z,2.10
2018-03-20T19:06:22.173Z,2.10
2018-03-20T19:08:51.431Z,2.10
2018-03-20T19:11:21.197Z,2.10
2018-03-20T19:13:49.680Z,2.00
2018-03-20T19:16:19.427Z,2.00
2018-03-20T19:18:49.599Z,2.00
2018-03-20T19:21:19.255Z,1.90
2018-03-20T19:23:49.077Z,1.90
2018-03-20T19:26:19.152Z,1.80
2018-03-20T19:28:49.187Z,1.80
2018-03-20T19:31:18.234Z,1.80
2018-03-20T19:33:48.303Z,1.80
2018-03-20T19:36:18.741Z,1.90
2018-03-20T19:38:48.430Z,1.80
2018-03-20T19:41:18.116Z,1.80
2018-03-20T19:43:47.599Z,1.80
2018-03-20T19:46:16.487Z,1.80
2018-03-20T19:48:45.351Z,1.80
2018-03-20T19:51:14.037Z,1.80
2018-03-20T19:53:42.949Z,1.90
2018-03-20T19:56:11.865Z,1.90
2018-03-20T19:58:41.531Z,1.90
2018-03-20T20:01:10.826Z,1.90
2018-03-20T20:03:39.267Z,1.80
2018-03-20T20:06:08.095Z,1.80
2018-03-20T20:08:36.508Z,1.80
2018-03-20T20:11:04.926Z,1.70
2018-03-20T20:13:33.797Z,1.80
2018-03-20T20:16:02.748Z,1.80
2018-03-20T20:18:31.968Z,1.70
2018-03-20T20:21:00.460Z,1.80
2018-03-20T20:23:29.815Z,1.90
2018-03-20T20:25:58.271Z,1.90
2018-03-20T20:28:26.963Z,1.90
2018-03-20T20:30:55.354Z,1.90
2018-03-20T20:33:24.169Z,1.80
2018-03-20T20:35:54.657Z,1.90
2018-03-20T20:38:23.172Z,1.90
2018-03-20T20:40:52.246Z,1.90
2018-03-20T20:43:21.347Z,1.90
2018-03-20T20:45:52.037Z,2.00
2018-03-20T20:48:21.075Z,1.90
2018-03-20T20:50:50.458Z,2.00
2018-03-20T20:53:20.479Z,2.00
2018-03-20T20:55:50.126Z,2.10
2018-03-20T20:58:19.098Z,2.10
2018-03-20T21:00:49.678Z,2.10
2018-03-20T21:03:18.504Z,2.20
2018-03-20T21:05:48.573Z,2.10
2018-03-20T21:08:18.538Z,2.20
2018-03-20T21:10:47.827Z,2.20
2018-03-20T21:13:16.489Z,2.10
2018-03-20T21:15:45.460Z,2.20
2018-03-20T21:18:15.390Z,2.10
2018-03-20T21:20:44.409Z,2.10
2018-03-20T21:23:13.265Z,2.10
2018-03-20T21:25:42.212Z,2.10
2018-03-20T21:28:11.617Z,2.20
2018-03-20T21:30:40.481Z,2.10
2018-03-20T21:33:09.135Z,2.20
2018-03-20T21:35:38.186Z,2.20
2018-03-20T21:38:06.582Z,2.30
2018-03-20T21:40:35.035Z,2.30
2018-03-20T21:43:03.522Z,2.30
2018-03-20T21:45:32.111Z,2.30
2018-03-20T21:48:00.559Z,2.30
2018-03-20T21:50:28.986Z,2.30
2018-03-20T21:52:57.397Z,2.30
2018-03-20T21:55:26.696Z,2.20
2018-03-20T21:57:55.915Z,2.20
2018-03-20T22:00:24.322Z,2.20
2018-03-20T22:02:52.890Z,2.20
2018-03-20T22:05:21.264Z,2.10
2018-03-20T22:07:49.644Z,2.10
2018-03-20T22:10:19.440Z,2.10
2018-03-20T22:12:49.034Z,2.20
2018-03-20T22:15:18.192Z,2.20
2018-03-20T22:17:46.585Z,2.20
2018-03-20T22:20:16.766Z,2.10
2018-03-20T22:22:45.141Z,2.10
2018-03-20T22:25:13.518Z,2.20
2018-03-20T22:27:41.910Z,2.10
2018-03-20T22:30:10.278Z,2.20
2018-03-20T22:32:38.684Z,2.20
2018-03-20T22:35:07.064Z,2.10
2018-03-20T22:37:35.735Z,2.20
2018-03-20T22:40:04.118Z,2.10
2018-03-20T22:42:32.501Z,2.10
2018-03-20T22:45:01.060Z,2.10
2018-03-20T22:47:29.435Z,2.10
2018-03-20T22:49:57.840Z,2.00
2018-03-20T22:52:26.210Z,2.10
2018-03-20T22:54:54.647Z,2.00
2018-03-20T22:57:23.781Z,2.20
2018-03-20T22:59:52.146Z,2.10
2018-03-20T23:02:20.556Z,2.20
2018-03-20T23:04:48.934Z,2.10
2018-03-20T23:07:17.341Z,2.00
2018-03-20T23:09:46.486Z,2.00
2018-03-20T23:12:14.901Z,2.00
2018-03-20T23:14:43.285Z,1.90
2018-03-20T23:17:11.671Z,1.90
2018-03-20T23:19:40.072Z,1.90
2018-03-20T23:22:08.439Z,1.90
2018-03-20T23:24:37.599Z,1.90
2018-03-20T23:27:05.965Z,1.90
2018-03-20T23:29:34.753Z,1.90
2018-03-20T23:32:03.141Z,1.90
2018-03-20T23:34:31.517Z,1.90
2018-03-20T23:36:59.918Z,1.90
2018-03-20T23:39:29.218Z,1.90
2018-03-20T23:41:57.619Z,1.90
2018-03-20T23:44:26.751Z,1.90
2018-03-20T23:46:55.348Z,1.90
2018-03-20T23:49:23.723Z,2.00
2018-03-20T23:51:52.095Z,1.80
2018-03-20T23:54:20.504Z,1.80
2018-03-20T23:56:49.199Z,1.90
2018-03-20T23:59:19.098Z,1.80
